SKRH/RCH METAR and TAF weather

Enter ICAO airport designator
Station Type Date Time Source
SKRH METAR 2020/06/04 20:00 UTC NOAA

SKRH 042000Z 04010KT 9999 FEW015 SCT200 34/25 A2973


Station Type Date Time Source
SKRH Decoded METAR 2020/06/04 20:00 UTC NOAA

Riohacha / Almirante Padilla, Colombia (SKRH) 11-32N 072-56W 4M
Jun 04, 2020 - 04:00 PM EDT / 2020.06.04 2000 UTC
Wind: from the NE (040 degrees) at 12 MPH (10 KT):0
Visibility: greater than 7 mile(s):0
Sky conditions: partly cloudy
Temperature: 93 F (34 C)
Heat index: 106.7 F (41.5 C):1
Dew Point: 77 F (25 C)
Relative Humidity: 59%
Pressure (altimeter): 29.73 in. Hg (1006 hPa)
ob: SKRH 042000Z 04010KT 9999 FEW015 SCT200 34/25 A2973
cycle: 20

Station Type Date Time Source
SKRH TAF 2015/07/31 18:51 UTC NOAA

TAF SKRH 311700Z 3118/0118 07010KT 9999 SCT017
TEMPO 3120/0103 09015KT CAVOK
TEMPO 0109/0114 9000 BKN015 TX36/3118Z TN28/0110Z

Example: see airport list